createdAt,value
2018-01-11T07:01:27.584Z,8.57
2018-01-11T07:03:55.768Z,8.13
2018-01-11T07:06:24.051Z,7.97
2018-01-11T07:08:51.620Z,7.93
2018-01-11T07:11:19.156Z,8.00
2018-01-11T07:13:46.712Z,8.07
2018-01-11T07:16:14.242Z,8.97
2018-01-11T07:18:41.796Z,7.83
2018-01-11T07:21:09.341Z,9.10
2018-01-11T07:23:37.635Z,8.40
2018-01-11T07:26:05.176Z,8.40
2018-01-11T07:28:33.479Z,8.40
2018-01-11T07:31:01.022Z,9.40
2018-01-11T07:33:28.565Z,8.30
2018-01-11T07:35:56.981Z,8.00
2018-01-11T07:38:24.503Z,8.50
2018-01-11T07:40:52.799Z,7.70
2018-01-11T07:43:20.371Z,8.23
2018-01-11T07:45:47.899Z,8.90
2018-01-11T07:48:16.224Z,8.50
2018-01-11T07:50:43.743Z,8.00
2018-01-11T07:53:12.049Z,8.90
2018-01-11T07:55:39.571Z,8.00
2018-01-11T07:58:07.881Z,8.90
2018-01-11T08:00:35.440Z,8.70
2018-01-11T08:03:03.827Z,8.10
2018-01-11T08:05:31.359Z,9.70
2018-01-11T08:07:58.884Z,9.10
2018-01-11T08:10:26.431Z,9.53
2018-01-11T08:12:53.981Z,8.57
2018-01-11T08:15:22.407Z,8.47
2018-01-11T08:17:50.729Z,8.93
2018-01-11T08:20:18.272Z,10.10
2018-01-11T08:22:45.799Z,10.47
2018-01-11T08:25:14.118Z,9.87
2018-01-11T08:27:41.644Z,9.00
2018-01-11T08:30:09.945Z,10.30
2018-01-11T08:32:37.503Z,9.90
2018-01-11T08:35:05.063Z,10.10
2018-01-11T08:37:32.609Z,10.40
2018-01-11T08:40:00.199Z,11.10
2018-01-11T08:42:28.324Z,11.10
2018-01-11T08:44:56.620Z,11.23
2018-01-11T08:47:24.204Z,10.43
2018-01-11T08:49:51.741Z,11.47
2018-01-11T08:52:19.292Z,11.33
2018-01-11T08:55:00.501Z,10.40
2018-01-11T08:57:35.440Z,12.33
2018-01-11T09:00:16.626Z,11.30
2018-01-11T09:02:54.672Z,10.67
2018-01-11T09:05:25.032Z,12.60
2018-01-11T09:07:59.567Z,12.20
2018-01-11T09:10:41.122Z,11.33
2018-01-11T09:13:16.509Z,12.77
2018-01-11T09:15:52.251Z,14.23
2018-01-11T09:18:29.959Z,12.03
2018-01-11T09:21:09.762Z,12.00
2018-01-11T09:23:48.695Z,12.13
2018-01-11T09:26:24.183Z,13.50
2018-01-11T09:29:01.424Z,13.20
2018-01-11T09:31:40.924Z,12.10
2018-01-11T09:34:20.009Z,11.50
2018-01-11T09:36:52.942Z,11.47
2018-01-11T09:39:32.230Z,12.07
2018-01-11T09:42:08.012Z,12.20
2018-01-11T09:44:49.052Z,12.00
2018-01-11T09:47:28.519Z,11.73
2018-01-11T09:50:05.355Z,12.23
2018-01-11T09:52:41.439Z,11.90
2018-01-11T09:55:22.520Z,12.10
2018-01-11T09:58:01.107Z,12.23
2018-01-11T10:00:40.849Z,12.03
2018-01-11T10:03:12.933Z,12.50
2018-01-11T10:05:46.941Z,12.97
2018-01-11T10:08:28.742Z,12.87
2018-01-11T10:11:03.176Z,12.67
2018-01-11T10:13:43.074Z,11.57
2018-01-11T10:16:19.336Z,12.80
2018-01-11T10:18:53.364Z,12.70
2018-01-11T10:21:27.098Z,12.67
2018-01-11T10:23:56.696Z,12.20
2018-01-11T10:26:30.906Z,13.77
2018-01-11T10:29:09.912Z,13.20
2018-01-11T10:31:46.877Z,13.93
2018-01-11T10:34:14.444Z,11.93
2018-01-11T10:36:42.055Z,13.60
2018-01-11T10:39:09.683Z,13.07
2018-01-11T10:41:37.236Z,14.27
2018-01-11T10:44:04.777Z,12.93
2018-01-11T10:46:32.316Z,12.83
2018-01-11T10:49:00.717Z,12.37
2018-01-11T10:51:38.681Z,13.37
2018-01-11T10:54:17.227Z,13.37
2018-01-11T10:56:55.048Z,13.00
2018-01-11T10:59:32.261Z,13.20
2018-01-11T11:02:15.824Z,12.77
2018-01-11T11:04:52.790Z,12.63
2018-01-11T11:07:32.559Z,12.57
2018-01-11T11:10:12.739Z,12.80
2018-01-11T11:12:50.882Z,12.57
2018-01-11T11:15:30.575Z,13.40
2018-01-11T11:18:09.616Z,13.57
2018-01-11T11:20:47.639Z,13.77
2018-01-11T12:00:44.465Z,14.53
2018-01-11T12:03:23.679Z,13.80
2018-01-11T12:06:04.583Z,14.43
2018-01-11T12:08:45.363Z,14.60
2018-01-11T12:11:24.503Z,14.70
2018-01-11T12:14:06.278Z,13.83
2018-01-11T12:16:47.699Z,15.53
2018-01-11T12:19:28.435Z,14.03
2018-01-11T12:22:07.225Z,14.97
2018-01-11T12:24:47.077Z,14.97
2018-01-11T12:27:24.632Z,14.53
2018-01-11T12:30:03.522Z,14.83
2018-01-11T12:32:42.178Z,15.23
2018-01-11T12:35:19.005Z,12.90
2018-01-11T12:37:55.119Z,11.73
2018-01-11T12:40:25.703Z,12.67
2018-01-11T12:43:02.539Z,9.47
2018-01-11T12:45:41.589Z,8.63
2018-01-11T12:48:21.643Z,7.10
2018-01-11T12:51:00.896Z,8.13
2018-01-11T12:53:38.062Z,8.83
2018-01-11T12:56:17.616Z,8.50
2018-01-11T13:01:39.790Z,8.93
2018-01-11T13:04:21.007Z,7.03
2018-01-11T13:07:01.375Z,10.50
2018-01-11T13:09:38.981Z,12.03
2018-01-11T13:12:20.277Z,11.53
2018-01-11T13:15:01.112Z,10.30
2018-01-11T13:17:37.447Z,11.63
2018-01-11T13:20:19.143Z,10.50
2018-01-11T13:22:47.552Z,9.87
2018-01-11T13:25:25.991Z,11.30
2018-01-11T13:28:05.585Z,10.47
2018-01-11T13:30:45.875Z,10.13
2018-01-11T13:33:27.005Z,10.50
2018-01-11T13:36:09.157Z,10.27
2018-01-11T13:38:48.192Z,10.13
2018-01-11T13:41:27.163Z,9.30
2018-01-11T13:44:06.080Z,9.90
2018-01-11T13:46:43.500Z,7.77
2018-01-11T13:49:22.826Z,7.90
2018-01-11T13:52:00.550Z,7.00
2018-01-11T13:54:42.904Z,6.77
2018-01-11T13:57:21.840Z,7.53
2018-01-11T14:00:01.186Z,7.77
2018-01-11T14:02:41.138Z,7.10
2018-01-11T14:05:21.405Z,8.00
2018-01-11T14:08:00.414Z,7.40
2018-01-11T14:10:36.901Z,7.63
2018-01-11T14:13:15.878Z,7.40
2018-01-11T14:15:52.986Z,7.47
2018-01-11T14:18:35.126Z,7.13
2018-01-11T14:21:12.315Z,7.13
2018-01-11T14:23:52.450Z,7.37
2018-01-11T14:26:32.903Z,7.90
2018-01-11T14:29:12.196Z,8.27
2018-01-11T14:31:41.159Z,8.00
2018-01-11T14:34:21.507Z,8.13
2018-01-11T14:36:55.801Z,8.83
2018-01-11T14:39:33.203Z,8.83
2018-01-11T14:42:11.120Z,8.43
2018-01-11T14:44:52.545Z,8.33
2018-01-11T14:47:31.598Z,8.17
2018-01-11T14:50:07.696Z,8.33
2018-01-11T14:52:45.630Z,7.90
2018-01-11T14:55:27.568Z,7.80
2018-01-11T14:58:08.924Z,7.70
2018-01-11T15:00:41.037Z,7.70
2018-01-11T15:03:21.725Z,7.83
2018-01-11T15:06:03.995Z,7.80
2018-01-11T15:08:43.217Z,7.70
2018-01-11T15:11:21.756Z,8.07
2018-01-11T15:14:00.552Z,9.57
2018-01-11T15:16:40.809Z,8.93
2018-01-11T15:19:08.375Z,10.40
2018-01-11T15:21:36.744Z,9.97
2018-01-11T15:24:04.280Z,9.67
2018-01-11T15:26:31.847Z,9.63
2018-01-11T15:28:59.470Z,8.43
2018-01-11T15:31:27.032Z,7.87
2018-01-11T15:33:54.568Z,7.13
2018-01-11T15:36:22.970Z,6.03
2018-01-11T15:38:50.570Z,6.97
2018-01-11T15:41:18.867Z,6.70
2018-01-11T15:43:46.420Z,5.03
2018-01-11T15:46:13.974Z,5.17
2018-01-11T15:48:41.526Z,5.17
2018-01-11T15:51:09.059Z,5.57
2018-01-11T15:53:36.589Z,5.47
2018-01-11T15:56:04.132Z,6.17
2018-01-11T15:58:32.541Z,6.23
2018-01-11T16:01:00.083Z,6.60
2018-01-11T16:03:28.972Z,6.87
2018-01-11T16:05:57.280Z,7.67
2018-01-11T16:08:24.802Z,8.30
2018-01-11T16:10:53.165Z,8.20
2018-01-11T16:13:20.676Z,7.70
2018-01-11T16:15:48.206Z,8.17
2018-01-11T16:18:15.752Z,8.27
2018-01-11T16:20:44.059Z,8.40
2018-01-11T16:23:11.728Z,9.23
2018-01-11T16:25:39.253Z,9.13
2018-01-11T16:28:07.544Z,9.83
2018-01-11T16:30:35.113Z,10.70
2018-01-11T16:33:02.668Z,10.77
2018-01-11T16:35:30.239Z,10.23
2018-01-11T16:37:57.772Z,11.27
2018-01-11T16:40:26.532Z,11.10
2018-01-11T16:42:54.125Z,12.03
2018-01-11T16:45:22.437Z,11.40
2018-01-11T16:47:50.000Z,12.03
2018-01-11T16:50:17.647Z,11.47
2018-01-11T16:52:45.291Z,12.40
2018-01-11T16:55:12.839Z,12.40
2018-01-11T16:57:41.160Z,12.60
2018-01-11T17:00:08.730Z,12.50
2018-01-11T17:02:36.281Z,12.30
2018-01-11T17:05:03.847Z,13.00
2018-01-11T17:07:31.369Z,12.57
2018-01-11T17:09:58.943Z,13.17
2018-01-11T17:12:26.527Z,13.10
2018-01-11T17:14:54.161Z,14.00
2018-01-11T17:17:21.714Z,14.57
2018-01-11T17:19:49.275Z,14.90
2018-01-11T17:22:17.047Z,14.63
2018-01-11T17:24:44.628Z,15.40
2018-01-11T17:27:12.176Z,15.23
2018-01-11T17:29:39.875Z,16.07
2018-01-11T17:32:07.512Z,16.17
2018-01-11T17:34:35.150Z,15.87
2018-01-11T17:37:02.718Z,15.30
2018-01-11T17:39:30.908Z,16.73
2018-01-11T17:41:58.460Z,17.07
2018-01-11T17:44:27.294Z,15.87
2018-01-11T17:46:54.871Z,16.90
2018-01-11T17:49:23.226Z,16.30
2018-01-11T17:51:50.879Z,17.10
2018-01-11T17:54:18.464Z,17.33
2018-01-11T17:56:46.052Z,16.87
2018-01-11T17:59:13.639Z,16.23
2018-01-11T18:01:41.240Z,18.47
2018-01-11T18:04:09.571Z,17.57
2018-01-11T18:06:37.336Z,18.23
2018-01-11T18:09:04.940Z,17.30
2018-01-11T18:11:33.291Z,17.70
2018-01-11T18:14:01.616Z,18.10
2018-01-11T18:16:29.172Z,18.50
2018-01-11T18:18:56.712Z,18.33
2018-01-11T18:21:24.316Z,19.00
2018-01-11T18:23:51.864Z,17.40
2018-01-11T18:26:19.388Z,18.80
2018-01-11T18:28:47.809Z,18.57
2018-01-11T18:31:15.339Z,19.47
2018-01-11T18:33:43.640Z,19.97
2018-01-11T18:36:12.110Z,19.97
2018-01-11T18:38:39.729Z,18.80
2018-01-11T18:41:07.256Z,18.40
2018-01-11T18:43:34.788Z,19.17
2018-01-11T18:46:02.340Z,21.90
2018-01-11T18:48:30.743Z,21.53
2018-01-11T18:50:58.274Z,20.37
2018-01-11T18:53:26.783Z,22.37
2018-01-11T18:55:54.429Z,23.27
2018-01-11T18:58:21.969Z,21.93
2018-01-11T19:00:50.281Z,22.13
2018-01-11T19:03:18.952Z,22.77
2018-01-11T19:05:46.504Z,21.60
2018-01-11T19:08:14.829Z,22.70
2018-01-11T19:10:42.366Z,20.97
2018-01-11T19:13:09.899Z,21.47
2018-01-11T19:15:38.240Z,21.17
2018-01-11T19:18:05.777Z,21.50
2018-01-11T19:20:33.343Z,20.07
2018-01-11T19:23:00.879Z,20.60
2018-01-11T19:25:28.516Z,20.97
2018-01-11T19:27:56.824Z,20.87
2018-01-11T19:30:24.362Z,21.70
2018-01-11T19:32:51.938Z,22.57
2018-01-11T19:35:19.472Z,21.00
2018-01-11T19:37:47.783Z,20.80
2018-01-11T19:40:16.193Z,21.63
2018-01-11T19:42:43.720Z,19.90
2018-01-11T19:45:11.272Z,21.23
2018-01-11T19:47:38.821Z,19.87
2018-01-11T19:50:06.448Z,20.67
2018-01-11T19:52:34.776Z,20.70
2018-01-11T19:55:02.299Z,20.83
2018-01-11T19:57:29.902Z,21.37
2018-01-11T19:59:57.436Z,21.57
2018-01-11T20:02:24.994Z,22.33
2018-01-11T20:04:52.515Z,21.97
2018-01-11T20:07:20.043Z,23.50
2018-01-11T20:09:47.592Z,23.67
2018-01-11T20:12:15.127Z,23.10
2018-01-11T20:14:51.380Z,21.57
2018-01-11T20:17:33.204Z,21.00
2018-01-11T20:20:07.324Z,21.30
2018-01-11T20:22:34.872Z,23.37
2018-01-11T20:25:02.447Z,20.67
2018-01-11T20:27:30.050Z,21.13
2018-01-11T20:29:58.359Z,22.00
2018-01-11T20:32:25.908Z,23.00
2018-01-11T20:34:54.204Z,20.63
2018-01-11T20:37:21.765Z,23.50
2018-01-11T20:39:49.309Z,22.33
2018-01-11T20:42:16.863Z,21.70
2018-01-11T20:44:44.446Z,21.60
2018-01-11T20:47:12.054Z,22.07
2018-01-11T20:49:39.609Z,21.23
2018-01-11T20:52:07.986Z,21.03
2018-01-11T20:54:35.517Z,21.73
2018-01-11T20:57:03.084Z,19.67
2018-01-11T20:59:30.724Z,21.97
2018-01-11T21:01:58.294Z,20.43
2018-01-11T21:04:25.877Z,20.23
2018-01-11T21:06:53.458Z,21.13
2018-01-11T21:09:21.043Z,20.23
2018-01-11T21:11:49.340Z,21.23
2018-01-11T21:14:16.888Z,19.93
2018-01-11T21:16:44.439Z,19.27
2018-01-11T21:19:11.972Z,20.77
2018-01-11T21:21:39.529Z,20.47
2018-01-11T21:24:07.095Z,21.23
2018-01-11T21:26:34.732Z,22.33
2018-01-11T21:29:02.273Z,21.30
2018-01-11T21:31:29.920Z,20.40
2018-01-11T21:33:57.508Z,21.40
2018-01-11T21:36:25.143Z,19.93
2018-01-11T21:38:52.672Z,19.90
2018-01-11T21:41:20.989Z,21.40
2018-01-11T21:43:48.574Z,21.10
2018-01-11T21:46:16.235Z,19.17
2018-01-11T21:48:43.788Z,23.40
2018-01-11T21:51:25.945Z,23.70
2018-01-11T21:54:06.669Z,21.67
2018-01-11T21:56:47.451Z,23.57
2018-01-11T21:59:26.052Z,21.47
2018-01-11T22:02:01.963Z,21.10
2018-01-11T22:04:43.454Z,20.57
2018-01-11T22:07:21.121Z,21.10
2018-01-11T22:10:02.396Z,22.30
2018-01-11T22:12:44.246Z,21.30
2018-01-11T22:15:18.971Z,21.77
2018-01-11T22:18:00.097Z,21.47
2018-01-11T22:20:41.816Z,21.53
2018-01-11T22:23:22.572Z,21.63
2018-01-11T22:26:03.046Z,21.47
2018-01-11T22:28:39.247Z,21.00
2018-01-11T22:31:17.566Z,23.00
2018-01-11T22:33:56.108Z,21.77
2018-01-11T22:36:34.902Z,21.83
2018-01-11T22:39:11.516Z,21.37
2018-01-11T22:41:46.318Z,21.93
2018-01-11T22:44:25.312Z,22.53
2018-01-11T22:47:04.760Z,21.67
2018-01-11T22:49:36.402Z,21.80
2018-01-11T22:52:18.185Z,22.80
2018-01-11T22:54:58.667Z,21.10
2018-01-11T22:57:34.433Z,21.23
2018-01-11T23:00:17.238Z,22.20
2018-01-11T23:02:53.220Z,22.00
2018-01-11T23:05:32.958Z,21.50
2018-01-11T23:08:08.608Z,22.97
2018-01-11T23:10:50.480Z,23.17
2018-01-11T23:13:29.189Z,24.17
2018-01-11T23:16:02.718Z,25.27
2018-01-11T23:18:46.278Z,23.63
2018-01-11T23:21:23.236Z,24.00
2018-01-11T23:24:05.199Z,23.33
2018-01-11T23:26:45.490Z,24.03
2018-01-11T23:29:25.211Z,23.07
2018-01-11T23:32:06.229Z,24.17
2018-01-11T23:34:44.628Z,24.37
2018-01-11T23:37:24.899Z,24.73
2018-01-11T23:40:00.626Z,23.80
2018-01-11T23:42:40.554Z,23.93
2018-01-11T23:45:16.025Z,24.67
2018-01-11T23:47:56.056Z,22.63
2018-01-11T23:50:38.250Z,23.03
2018-01-11T23:53:18.530Z,24.27
2018-01-11T23:55:55.336Z,24.43
2018-01-11T23:58:33.484Z,21.77
